Amarant — CQSF — position and weather

sailwx.info

Track history (hours):
 
Tides and Currents Weather Stations Pressure Air Temp Water Temp Dewpoint Dewpoint Depression Visibility Wind Speed Wind Dir Waves Ship Positions

Amarant

Last reported at 2018-Apr-26 01:59 UTC. Time now 2018-Apr-26 02:00 UTC.
Position N 59°38' E 024°33'.

Length 119 m; draft 5.2 m.

Type: Tanker. MMSI: 255623000.

Date/timePositionNaut miles runAvg speedWind from/ knotsBaromVisibWave heightAir tempDewpointWater temp
2018-Apr-26 01:59N 59°38' E 024°33'612.5
2018-Apr-26 01:30N 59°38' E 024°45'611.2
2018-Apr-26 01:00N 59°35' E 024°54'5 9.9
2018-Apr-26 00:30N 59°30' E 024°57'0 0.3
2018-Apr-25 23:59N 59°30' E 024°56'0 0.0
2018-Apr-25 23:29N 59°30' E 024°56'0 0.0
2018-Apr-25 22:59N 59°30' E 024°56'0 0.0
2018-Apr-25 22:29N 59°30' E 024°56'0 0.0
2018-Apr-25 21:59N 59°30' E 024°56'0 0.0
2018-Apr-25 21:29N 59°30' E 024°56'0 0.0
2018-Apr-25 20:59N 59°30' E 024°56'0 0.0
2018-Apr-25 20:29N 59°30' E 024°56'0 0.0
2018-Apr-25 19:59N 59°30' E 024°56'0 0.0
2018-Apr-25 19:29N 59°30' E 024°56'0 0.0
2018-Apr-25 19:00N 59°30' E 024°56'0 0.4
2018-Apr-25 18:30N 59°30' E 024°57'2 4.4
2018-Apr-25 18:00N 59°32' E 024°57'611.9
2018-Apr-25 17:30N 59°37' E 024°49'611.9
2018-Apr-25 17:00N 59°38' E 024°38'612.0
2018-Apr-25 16:30N 59°38' E 024°26'612.2
2018-Apr-25 16:00N 59°36' E 024°14'1312.1
2018-Apr-25 14:56N 59°33' E 023°49'511.0
2018-Apr-25 14:27N 59°32' E 023°39'510.9
2018-Apr-25 13:59N 59°31' E 023°29'511.2
2018-Apr-25 13:30N 59°30' E 023°19'31112.8
2018-Apr-24 13:12N 55°47' E 016°35'313.4
2018-Apr-24 13:00N 55°45' E 016°32'613.0
2018-Apr-24 12:30N 55°40' E 016°25'1013.0
2018-Apr-24 11:46N 55°32' E 016°14'313.1
2018-Apr-24 11:30N 55°29' E 016°10'2913.0
2018-Apr-24 09:18N 55°07' E 015°39'513.0
2018-Apr-24 08:57N 55°03' E 015°34'713.1
2018-Apr-24 08:26N 54°58' E 015°27'813.0
2018-Apr-24 07:47N 54°52' E 015°16'413.0
2018-Apr-24 07:30N 54°50' E 015°12'712.9
2018-Apr-24 07:00N 54°45' E 015°04'612.8
2018-Apr-24 06:31N 54°41' E 014°56'58 9.5
2018-Apr-24 00:24N 53°46' E 014°24'511.7
2018-Apr-24 00:00N 53°42' E 014°29'510.7
2018-Apr-23 23:30N 53°38' E 014°35'610.7
2018-Apr-23 22:58N 53°32' E 014°38'4 8.3
2018-Apr-23 22:27N 53°28' E 014°36'4 7.6
2018-Apr-23 21:58N 53°25' E 014°37'0 0.8
2018-Apr-23 21:25N 53°25' E 014°36'0 0.0
2018-Apr-23 20:49N 53°25' E 014°36'0 0.0
2018-Apr-23 20:25N 53°25' E 014°36'0 0.0
2018-Apr-23 19:55N 53°25' E 014°36'0 0.0
2018-Apr-23 19:25N 53°25' E 014°36'0 0.0
2018-Apr-23 18:52N 53°25' E 014°36'0 0.0
2018-Apr-23 18:25N 53°25' E 014°36'0 0.0
2018-Apr-23 17:52N 53°25' E 014°36'0 0.0
2018-Apr-23 17:28N 53°25' E 014°36'0 0.0
2018-Apr-23 16:58N 53°25' E 014°36'0 0.0
2018-Apr-23 16:25N 53°25' E 014°36'0 0.0
2018-Apr-23 15:55N 53°25' E 014°36'0 0.0
2018-Apr-23 15:25N 53°25' E 014°36'0 0.0
2018-Apr-23 14:55N 53°25' E 014°36'0 0.0
2018-Apr-23 14:28N 53°25' E 014°36'0 0.0
2018-Apr-23 13:55N 53°25' E 014°36'0 0.0
2018-Apr-23 13:28N 53°25' E 014°36'0 0.0
2018-Apr-23 12:52N 53°25' E 014°36'0 0.0
2018-Apr-23 12:25N 53°25' E 014°36'0 0.0
2018-Apr-23 11:55N 53°25' E 014°36'0 0.0
2018-Apr-23 11:28N 53°25' E 014°36'0 0.0
2018-Apr-23 10:55N 53°25' E 014°36'0 0.0
2018-Apr-23 10:25N 53°25' E 014°36'0 0.0
2018-Apr-23 09:58N 53°25' E 014°36'0 0.0
2018-Apr-23 09:25N 53°25' E 014°36'0 0.0
2018-Apr-23 08:55N 53°25' E 014°36'0 0.0
2018-Apr-23 08:28N 53°25' E 014°36'1 1.0
2018-Apr-23 07:57N 53°25' E 014°37'3 5.7
2018-Apr-23 07:27N 53°28' E 014°36'4 7.8
2018-Apr-23 06:57N 53°31' E 014°38'4 8.9
2018-Apr-23 06:31N 53°35' E 014°36'5 9.9
2018-Apr-23 06:00N 53°40' E 014°32'510.7
2018-Apr-23 05:30N 53°44' E 014°27'48 7.4
2018-Apr-22 23:02N 54°32' E 014°29'313.2
2018-Apr-22 22:47N 54°32' E 014°35'513.1
2018-Apr-22 22:24N 54°33' E 014°43'613.1
2018-Apr-22 21:58N 54°38' E 014°50'613.2
2018-Apr-22 21:30N 54°42' E 014°57'713.2
2018-Apr-22 21:01N 54°46' E 015°06'713.0
2018-Apr-22 20:30N 54°51' E 015°14'713.0
2018-Apr-22 19:58N 54°56' E 015°22'612.9
2018-Apr-22 19:30N 55°00' E 015°29'612.8
2018-Apr-22 19:01N 55°06' E 015°35'712.8
2018-Apr-22 18:27N 55°12' E 015°42'612.8
2018-Apr-22 18:00N 55°17' E 015°47'612.8
2018-Apr-22 17:30N 55°22' E 015°52'612.9
2018-Apr-22 17:00N 55°28' E 015°58'713.1
2018-Apr-22 16:30N 55°33' E 016°04'713.2
2018-Apr-22 16:01N 55°39' E 016°09'713.2
2018-Apr-22 15:31N 55°45' E 016°15'713.0
2018-Apr-22 15:01N 55°51' E 016°21'713.2
2018-Apr-22 14:31N 55°56' E 016°27'713.2
2018-Apr-22 14:01N 56°02' E 016°32'713.1
2018-Apr-22 13:31N 56°07' E 016°40'612.7
2018-Apr-22 13:01N 56°12' E 016°46'713.3
2018-Apr-22 12:31N 56°19' E 016°49'713.3
2018-Apr-22 12:00N 56°25' E 016°53'813.3
2018-Apr-22 11:22N 56°33' E 016°57'12513.3
2018-Apr-22 02:00N 58°35' E 017°51'713.4
2018-Apr-22 01:27N 58°42' E 017°53'510.1
2018-Apr-22 01:00N 58°46' E 017°56'713.3
2018-Apr-22 00:31N 58°52' E 018°01'3 5.4
2018-Apr-21 23:57N 58°55' E 017°58'0 0.0
2018-Apr-21 23:30N 58°55' E 017°58'0 0.0
2018-Apr-21 23:00N 58°55' E 017°58'0 0.0
2018-Apr-21 22:30N 58°55' E 017°58'0 0.0
2018-Apr-21 22:00N 58°55' E 017°58'0 0.0
2018-Apr-21 21:30N 58°55' E 017°58'0 0.0
2018-Apr-21 21:00N 58°55' E 017°58'0 0.0
2018-Apr-21 20:30N 58°55' E 017°58'0 0.0
2018-Apr-21 20:00N 58°55' E 017°58'0 0.0
2018-Apr-21 19:30N 58°55' E 017°58'0 0.0
2018-Apr-21 19:00N 58°55' E 017°58'0 0.0
2018-Apr-21 18:30N 58°55' E 017°58'0 0.0
2018-Apr-21 18:00N 58°55' E 017°58'0 0.0
2018-Apr-21 17:30N 58°55' E 017°58'0 0.0
2018-Apr-21 17:00N 58°55' E 017°58'0 0.0
2018-Apr-21 16:30N 58°55' E 017°58'0 0.0
2018-Apr-21 16:00N 58°55' E 017°58'0 0.0
2018-Apr-21 15:30N 58°55' E 017°58'0 0.0
2018-Apr-21 15:00N 58°55' E 017°58'0 0.0
2018-Apr-21 14:30N 58°55' E 017°58'0 0.0
2018-Apr-21 14:00N 58°55' E 017°58'0 0.0
2018-Apr-21 13:30N 58°55' E 017°58'0 0.0
2018-Apr-21 13:00N 58°55' E 017°58'0 0.0
2018-Apr-21 12:27N 58°55' E 017°58'0 0.0
2018-Apr-21 12:00N 58°55' E 017°58'0 0.0
2018-Apr-21 11:30N 58°55' E 017°58'0 0.0
2018-Apr-21 11:00N 58°55' E 017°58'0 0.0
2018-Apr-21 10:30N 58°55' E 017°58'0 0.0
2018-Apr-21 10:00N 58°55' E 017°58'0 0.0
2018-Apr-21 09:30N 58°55' E 017°58'0 0.0
2018-Apr-21 09:00N 58°55' E 017°58'0 0.0
2018-Apr-21 08:30N 58°55' E 017°58'0 0.0
2018-Apr-21 08:00N 58°55' E 017°58'0 0.0
2018-Apr-21 07:30N 58°55' E 017°58'0 0.0
2018-Apr-21 07:00N 58°55' E 017°58'0 0.0
2018-Apr-21 06:30N 58°55' E 017°58'0 0.0
2018-Apr-21 06:00N 58°55' E 017°58'0 0.0
2018-Apr-21 05:27N 58°55' E 017°58'0 0.0
2018-Apr-21 05:00N 58°55' E 017°58'0 0.0
2018-Apr-21 04:30N 58°55' E 017°58'1 1.1
2018-Apr-21 03:58N 58°55' E 017°59'0 0.2
2018-Apr-21 03:28N 58°55' E 017°59'0 0.1
2018-Apr-21 02:58N 58°55' E 017°59'0 0.1
2018-Apr-21 02:25N 58°55' E 017°59'0 0.0
2018-Apr-21 01:58N 58°55' E 017°59'0 0.0
2018-Apr-21 01:28N 58°55' E 017°59'0 0.0
2018-Apr-21 00:58N 58°55' E 017°59'0 0.0
2018-Apr-21 00:28N 58°55' E 017°59'0 0.0
2018-Apr-20 23:58N 58°55' E 017°59'0 0.0
2018-Apr-20 23:28N 58°55' E 017°59'0 0.0
2018-Apr-20 22:58N 58°55' E 017°59'0 0.0
2018-Apr-20 22:28N 58°55' E 017°59'0 0.0
2018-Apr-20 21:55N 58°55' E 017°59'0 0.0
2018-Apr-20 21:28N 58°55' E 017°59'0 0.0
2018-Apr-20 20:58N 58°55' E 017°59'0 0.0
2018-Apr-20 20:28N 58°55' E 017°59'0 0.0
2018-Apr-20 19:58N 58°55' E 017°59'0 0.0
2018-Apr-20 19:31N 58°55' E 017°59'0 0.1
2018-Apr-20 19:01N 58°55' E 017°59'0 0.0
2018-Apr-20 18:31N 58°55' E 017°59'0 0.0
2018-Apr-20 18:00N 58°55' E 017°59'0 0.0
2018-Apr-20 17:30N 58°55' E 017°59'0 0.0
2018-Apr-20 17:00N 58°55' E 017°59'0 0.0
2018-Apr-20 16:30N 58°55' E 017°59'0 0.0
2018-Apr-20 16:00N 58°55' E 017°59'0 0.0
2018-Apr-20 15:30N 58°55' E 017°59'0 0.0
2018-Apr-20 15:00N 58°55' E 017°59'0 0.0
2018-Apr-20 14:30N 58°55' E 017°59'0 0.0
2018-Apr-20 14:00N 58°55' E 017°59'0 0.0
2018-Apr-20 13:30N 58°55' E 017°59'0 0.0
2018-Apr-20 13:00N 58°55' E 017°59'0 0.0
2018-Apr-20 12:30N 58°55' E 017°59'0 0.0
2018-Apr-20 12:00N 58°55' E 017°59'0 0.1
2018-Apr-20 11:30N 58°55' E 017°59'0 0.1
2018-Apr-20 11:00N 58°55' E 017°59'0 0.1
2018-Apr-20 10:27N 58°55' E 017°59'0 0.0
2018-Apr-20 10:00N 58°55' E 017°59'0 0.0
2018-Apr-20 09:30N 58°55' E 017°59'0 0.1
2018-Apr-20 09:00N 58°55' E 017°59'0 0.0
2018-Apr-20 08:30N 58°55' E 017°59'0 0.0
2018-Apr-20 07:57N 58°55' E 017°59'0 0.0
2018-Apr-20 07:30N 58°55' E 017°59'0 0.0
2018-Apr-20 07:00N 58°55' E 017°59'0 0.0
2018-Apr-20 06:30N 58°55' E 017°59'0 0.0
2018-Apr-20 05:57N 58°55' E 017°59'0 0.0
2018-Apr-20 05:30N 58°55' E 017°59'0 0.1
2018-Apr-20 05:00N 58°55' E 017°59'0 0.3
2018-Apr-20 04:30N 58°55' E 017°59'1 1.1
2018-Apr-20 04:00N 58°55' E 017°58'0 0.0
2018-Apr-20 03:29N 58°55' E 017°58'0 0.0
2018-Apr-20 02:59N 58°55' E 017°58'0 0.0
2018-Apr-20 02:29N 58°55' E 017°58'0 0.0
2018-Apr-20 01:59N 58°55' E 017°58'0 0.0
2018-Apr-20 01:29N 58°55' E 017°58'0 0.0
2018-Apr-20 00:59N 58°55' E 017°58'0 0.0
2018-Apr-20 00:29N 58°55' E 017°58'0 0.0
2018-Apr-19 23:59N 58°55' E 017°58'0 0.0
2018-Apr-19 23:29N 58°55' E 017°58'0 0.0
2018-Apr-19 22:56N 58°55' E 017°58'0 0.0
2018-Apr-19 22:29N 58°55' E 017°58'0 0.0
2018-Apr-19 21:59N 58°55' E 017°58'0 0.0
2018-Apr-19 21:26N 58°55' E 017°58'0 0.0
2018-Apr-19 20:56N 58°55' E 017°58'0 0.0
2018-Apr-19 20:29N 58°55' E 017°58'0 0.0
2018-Apr-19 19:59N 58°55' E 017°58'0 0.0
2018-Apr-19 19:29N 58°55' E 017°58'0 0.0
2018-Apr-19 18:59N 58°55' E 017°58'0 0.0
2018-Apr-19 18:29N 58°55' E 017°58'0 0.0
2018-Apr-19 17:59N 58°55' E 017°58'0 0.0
2018-Apr-19 17:29N 58°55' E 017°58'0 0.0
2018-Apr-19 16:59N 58°55' E 017°58'0 0.0
2018-Apr-19 16:29N 58°55' E 017°58'0 0.0
2018-Apr-19 15:59N 58°55' E 017°58'0 0.0
2018-Apr-19 15:26N 58°55' E 017°58'0 0.0
2018-Apr-19 14:59N 58°55' E 017°58'0 0.0
2018-Apr-19 14:29N 58°55' E 017°58'0 0.0
2018-Apr-19 13:56N 58°55' E 017°58'0 0.0
2018-Apr-19 13:29N 58°55' E 017°58'0 0.0
2018-Apr-19 12:59N 58°55' E 017°58'0 0.0
2018-Apr-19 12:29N 58°55' E 017°58'0 0.2
2018-Apr-19 11:59N 58°55' E 017°58'0 0.0
2018-Apr-19 11:29N 58°55' E 017°58'0 0.0
2018-Apr-19 10:59N 58°55' E 017°58'0 0.0
2018-Apr-19 10:29N 58°55' E 017°58'0 0.0
2018-Apr-19 09:59N 58°55' E 017°58'0 0.0
2018-Apr-19 09:29N 58°55' E 017°58'0 0.0
2018-Apr-19 08:56N 58°55' E 017°58'0 0.0
2018-Apr-19 08:29N 58°55' E 017°58'0 0.0
2018-Apr-19 07:59N 58°55' E 017°58'0 0.0
2018-Apr-19 07:28N 58°55' E 017°58'1 1.3
2018-Apr-19 07:00N 58°55' E 017°60'510.8
2018-Apr-19 06:31N 58°50' E 017°59'711.0
2018-Apr-19 05:51N 58°43' E 017°52'2 5.0
2018-Apr-19 05:30N 58°42' E 017°53'712.5
2018-Apr-19 04:57N 58°35' E 017°51'15512.3
2018-Apr-18 16:20N 56°04' E 016°45'713.8
2018-Apr-18 15:50N 55°60' E 016°34'414.0
2018-Apr-18 15:30N 55°58' E 016°27'713.9
2018-Apr-18 15:00N 55°54' E 016°16'713.7
2018-Apr-18 14:30N 55°51' E 016°06'713.8
2018-Apr-18 14:00N 55°47' E 015°55'713.9
2018-Apr-18 13:30N 55°44' E 015°45'713.9
2018-Apr-18 13:00N 55°41' E 015°33'713.9
2018-Apr-18 12:30N 55°38' E 015°23'713.9
2018-Apr-18 12:00N 55°34' E 015°12'713.9
2018-Apr-18 11:29N 55°31' E 015°01'713.8
2018-Apr-18 11:01N 55°27' E 014°51'713.7
2018-Apr-18 10:30N 55°24' E 014°40'713.6
2018-Apr-18 10:00N 55°19' E 014°32'714.2
2018-Apr-18 09:30N 55°14' E 014°24'813.2
2018-Apr-18 08:56N 55°10' E 014°12'613.8
2018-Apr-18 08:30N 55°10' E 014°02'813.5
2018-Apr-18 07:54N 55°10' E 013°48'2413.4
2018-Apr-18 06:04N 55°12' E 013°05'213.4
2018-Apr-18 05:55N 55°13' E 013°02'813.3
2018-Apr-18 05:18N 55°16' E 012°48'413.1
2018-Apr-18 05:00N 55°17' E 012°42'510.1
2018-Apr-18 04:30N 55°22' E 012°39'612.6
2018-Apr-18 04:00N 55°28' E 012°41'611.2
2018-Apr-18 03:30N 55°33' E 012°42'611.6
2018-Apr-18 03:00N 55°39' E 012°41'612.9
2018-Apr-18 02:30N 55°46' E 012°41'612.9
2018-Apr-18 02:00N 55°52' E 012°40'713.4
2018-Apr-18 01:30N 55°59' E 012°38'612.5
2018-Apr-18 01:00N 56°05' E 012°35'813.8
2018-Apr-18 00:27N 56°10' E 012°25'1613.2
2018-Apr-17 23:12N 56°25' E 012°15'413.4
2018-Apr-17 22:56N 56°29' E 012°14'1213.9
2018-Apr-17 22:06N 56°40' E 012°08'214.1
2018-Apr-17 21:57N 56°42' E 012°07'614.0
2018-Apr-17 21:30N 56°48' E 012°05'713.5
2018-Apr-17 21:00N 56°55' E 012°01'713.4
2018-Apr-17 20:30N 57°01' E 011°58'713.6
2018-Apr-17 20:00N 57°08' E 011°55'713.9
2018-Apr-17 19:30N 57°14' E 011°52'713.9
2018-Apr-17 19:00N 57°21' E 011°47'713.5
2018-Apr-17 18:30N 57°27' E 011°42'713.4
2018-Apr-17 18:00N 57°33' E 011°37'5 9.4
2018-Apr-17 17:30N 57°38' E 011°41'3 6.3
2018-Apr-17 17:00N 57°39' E 011°45'3 6.5
2018-Apr-17 16:30N 57°41' E 011°51'1 2.9
2018-Apr-17 16:00N 57°41' E 011°53'0 0.0
2018-Apr-17 15:30N 57°41' E 011°53'0 0.0
2018-Apr-17 15:00N 57°41' E 011°53'0 0.0
2018-Apr-17 14:30N 57°41' E 011°53'0 0.0
2018-Apr-17 14:00N 57°41' E 011°53'0 0.0
2018-Apr-17 13:30N 57°41' E 011°53'0 0.0
2018-Apr-17 13:00N 57°41' E 011°53'0 0.0
2018-Apr-17 12:30N 57°41' E 011°53'0 0.0
2018-Apr-17 11:57N 57°41' E 011°53'0 0.0
2018-Apr-17 11:30N 57°41' E 011°53'0 0.0
2018-Apr-17 11:00N 57°41' E 011°53'0 0.0
2018-Apr-17 10:30N 57°41' E 011°53'0 0.0
2018-Apr-17 10:00N 57°41' E 011°53'0 0.0
2018-Apr-17 09:30N 57°41' E 011°53'0 0.0
2018-Apr-17 09:00N 57°41' E 011°53'0 0.0
2018-Apr-17 08:30N 57°41' E 011°53'0 0.0
2018-Apr-17 08:00N 57°41' E 011°53'0 0.0
2018-Apr-17 07:30N 57°41' E 011°53'0 0.0
2018-Apr-17 06:57N 57°41' E 011°53'0 0.0
2018-Apr-17 06:30N 57°41' E 011°53'0 0.0
2018-Apr-17 05:58N 57°41' E 011°53'0 0.0
2018-Apr-17 05:29N 57°41' E 011°53'0 0.0
2018-Apr-17 04:58N 57°41' E 011°53'0 0.0
2018-Apr-17 04:28N 57°41' E 011°53'0 0.0
2018-Apr-17 03:58N 57°41' E 011°53'0 0.0
2018-Apr-17 03:28N 57°41' E 011°53'0 0.0
2018-Apr-17 02:58N 57°41' E 011°53'0 0.0
2018-Apr-17 02:28N 57°41' E 011°53'0 0.0
2018-Apr-17 01:58N 57°41' E 011°53'0 0.0
2018-Apr-17 01:28N 57°41' E 011°53'0 0.0
2018-Apr-17 00:58N 57°41' E 011°53'0 0.0
2018-Apr-17 00:28N 57°41' E 011°53'0 0.0
2018-Apr-16 23:58N 57°41' E 011°53'0 0.0
2018-Apr-16 23:28N 57°41' E 011°53'0 0.0
2018-Apr-16 22:58N 57°41' E 011°53'0 0.0
2018-Apr-16 22:28N 57°41' E 011°53'0 0.0
2018-Apr-16 21:58N 57°41' E 011°53'0 0.0
2018-Apr-16 21:28N 57°41' E 011°53'0 0.0
2018-Apr-16 20:58N 57°41' E 011°53'0 0.0
2018-Apr-16 20:28N 57°41' E 011°53'0 0.0
2018-Apr-16 19:58N 57°41' E 011°53'0 0.0
2018-Apr-16 19:28N 57°41' E 011°53'0 0.0
2018-Apr-16 18:58N 57°41' E 011°53'0 0.0
2018-Apr-16 18:28N 57°41' E 011°53'0 0.0
2018-Apr-16 17:58N 57°41' E 011°53'0 0.0
2018-Apr-16 17:28N 57°41' E 011°53'0 0.0
2018-Apr-16 16:58N 57°41' E 011°53'0 0.0
2018-Apr-16 16:28N 57°41' E 011°53'0 0.0
2018-Apr-16 15:58N 57°41' E 011°53'0 0.0
2018-Apr-16 15:28N 57°41' E 011°53'0 0.0
2018-Apr-16 14:58N 57°41' E 011°53'0 0.0
2018-Apr-16 14:25N 57°41' E 011°53'0 0.0
2018-Apr-16 13:58N 57°41' E 011°53'0 0.0
2018-Apr-16 13:28N 57°41' E 011°53'0 0.0
2018-Apr-16 12:58N 57°41' E 011°53'0 0.0
2018-Apr-16 12:28N 57°41' E 011°53'0 0.0
2018-Apr-16 11:58N 57°41' E 011°53'0 0.0
2018-Apr-16 11:28N 57°41' E 011°53'0 0.0
2018-Apr-16 10:58N 57°41' E 011°53'0 0.0
2018-Apr-16 10:28N 57°41' E 011°53'0 0.8
2018-Apr-16 10:00N 57°41' E 011°53'0 0.4
2018-Apr-16 09:30N 57°41' E 011°53'0 0.0
2018-Apr-16 09:00N 57°41' E 011°53'0 0.0
2018-Apr-16 08:30N 57°41' E 011°53'0 0.0
2018-Apr-16 08:00N 57°41' E 011°53'0 0.0
2018-Apr-16 07:30N 57°41' E 011°53'0 0.0
2018-Apr-16 07:00N 57°41' E 011°53'0 0.0
2018-Apr-16 06:30N 57°41' E 011°53'0 0.0
2018-Apr-16 06:00N 57°41' E 011°53'0 0.0
2018-Apr-16 05:30N 57°41' E 011°53'0 0.0
2018-Apr-16 05:00N 57°41' E 011°53'0 0.0
2018-Apr-16 04:30N 57°41' E 011°53'0 0.0
2018-Apr-16 04:00N 57°41' E 011°53'0 0.0
2018-Apr-16 03:30N 57°41' E 011°53'0 0.0
2018-Apr-16 03:00N 57°41' E 011°53'0 0.0
2018-Apr-16 02:30N 57°41' E 011°53'0 0.0
2018-Apr-16 02:00N 57°41' E 011°53'  
Track history (hours):
 
Tides and Currents Weather Stations Pressure Air Temp Water Temp Dewpoint Dewpoint Depression Visibility Wind Speed Wind Dir Waves Ship Positions

Amarant

Last reported at 2018-Apr-26 01:59 UTC. Time now 2018-Apr-26 02:00 UTC.
Position N 59°38' E 024°33'.

Length 119 m; draft 5.2 m.

Type: Tanker. MMSI: 255623000.

Date/timePositionNaut miles runAvg speedWind from/ knotsBaromVisibWave heightAir tempDewpointWater temp
2018-Apr-26 01:59N 59°38' E 024°33'612.5
2018-Apr-26 01:30N 59°38' E 024°45'611.2
2018-Apr-26 01:00N 59°35' E 024°54'5 9.9
2018-Apr-26 00:30N 59°30' E 024°57'0 0.3
2018-Apr-25 23:59N 59°30' E 024°56'0 0.0
2018-Apr-25 23:29N 59°30' E 024°56'0 0.0
2018-Apr-25 22:59N 59°30' E 024°56'0 0.0
2018-Apr-25 22:29N 59°30' E 024°56'0 0.0
2018-Apr-25 21:59N 59°30' E 024°56'0 0.0
2018-Apr-25 21:29N 59°30' E 024°56'0 0.0
2018-Apr-25 20:59N 59°30' E 024°56'0 0.0
2018-Apr-25 20:29N 59°30' E 024°56'0 0.0
2018-Apr-25 19:59N 59°30' E 024°56'0 0.0
2018-Apr-25 19:29N 59°30' E 024°56'0 0.0
2018-Apr-25 19:00N 59°30' E 024°56'0 0.4
2018-Apr-25 18:30N 59°30' E 024°57'2 4.4
2018-Apr-25 18:00N 59°32' E 024°57'611.9
2018-Apr-25 17:30N 59°37' E 024°49'611.9
2018-Apr-25 17:00N 59°38' E 024°38'612.0
2018-Apr-25 16:30N 59°38' E 024°26'612.2
2018-Apr-25 16:00N 59°36' E 024°14'1312.1
2018-Apr-25 14:56N 59°33' E 023°49'511.0
2018-Apr-25 14:27N 59°32' E 023°39'510.9
2018-Apr-25 13:59N 59°31' E 023°29'511.2
2018-Apr-25 13:30N 59°30' E 023°19'31112.8
2018-Apr-24 13:12N 55°47' E 016°35'313.4
2018-Apr-24 13:00N 55°45' E 016°32'613.0
2018-Apr-24 12:30N 55°40' E 016°25'1013.0
2018-Apr-24 11:46N 55°32' E 016°14'313.1
2018-Apr-24 11:30N 55°29' E 016°10'2913.0
2018-Apr-24 09:18N 55°07' E 015°39'513.0
2018-Apr-24 08:57N 55°03' E 015°34'713.1
2018-Apr-24 08:26N 54°58' E 015°27'813.0
2018-Apr-24 07:47N 54°52' E 015°16'413.0
2018-Apr-24 07:30N 54°50' E 015°12'712.9
2018-Apr-24 07:00N 54°45' E 015°04'612.8
2018-Apr-24 06:31N 54°41' E 014°56'58 9.5
2018-Apr-24 00:24N 53°46' E 014°24'511.7
2018-Apr-24 00:00N 53°42' E 014°29'510.7
2018-Apr-23 23:30N 53°38' E 014°35'610.7
2018-Apr-23 22:58N 53°32' E 014°38'4 8.3
2018-Apr-23 22:27N 53°28' E 014°36'4 7.6
2018-Apr-23 21:58N 53°25' E 014°37'0 0.8
2018-Apr-23 21:25N 53°25' E 014°36'0 0.0
2018-Apr-23 20:49N 53°25' E 014°36'0 0.0
2018-Apr-23 20:25N 53°25' E 014°36'0 0.0
2018-Apr-23 19:55N 53°25' E 014°36'0 0.0
2018-Apr-23 19:25N 53°25' E 014°36'0 0.0
2018-Apr-23 18:52N 53°25' E 014°36'0 0.0
2018-Apr-23 18:25N 53°25' E 014°36'0 0.0
2018-Apr-23 17:52N 53°25' E 014°36'0 0.0
2018-Apr-23 17:28N 53°25' E 014°36'0 0.0
2018-Apr-23 16:58N 53°25' E 014°36'0 0.0
2018-Apr-23 16:25N 53°25' E 014°36'0 0.0
2018-Apr-23 15:55N 53°25' E 014°36'0 0.0
2018-Apr-23 15:25N 53°25' E 014°36'0 0.0
2018-Apr-23 14:55N 53°25' E 014°36'0 0.0
2018-Apr-23 14:28N 53°25' E 014°36'0 0.0
2018-Apr-23 13:55N 53°25' E 014°36'0 0.0
2018-Apr-23 13:28N 53°25' E 014°36'0 0.0
2018-Apr-23 12:52N 53°25' E 014°36'0 0.0
2018-Apr-23 12:25N 53°25' E 014°36'0 0.0
2018-Apr-23 11:55N 53°25' E 014°36'0 0.0
2018-Apr-23 11:28N 53°25' E 014°36'0 0.0
2018-Apr-23 10:55N 53°25' E 014°36'0 0.0
2018-Apr-23 10:25N 53°25' E 014°36'0 0.0
2018-Apr-23 09:58N 53°25' E 014°36'0 0.0
2018-Apr-23 09:25N 53°25' E 014°36'0 0.0
2018-Apr-23 08:55N 53°25' E 014°36'0 0.0
2018-Apr-23 08:28N 53°25' E 014°36'1 1.0
2018-Apr-23 07:57N 53°25' E 014°37'3 5.7
2018-Apr-23 07:27N 53°28' E 014°36'4 7.8
2018-Apr-23 06:57N 53°31' E 014°38'4 8.9
2018-Apr-23 06:31N 53°35' E 014°36'5 9.9
2018-Apr-23 06:00N 53°40' E 014°32'510.7
2018-Apr-23 05:30N 53°44' E 014°27'48 7.4
2018-Apr-22 23:02N 54°32' E 014°29'313.2
2018-Apr-22 22:47N 54°32' E 014°35'513.1
2018-Apr-22 22:24N 54°33' E 014°43'613.1
2018-Apr-22 21:58N 54°38' E 014°50'613.2
2018-Apr-22 21:30N 54°42' E 014°57'713.2
2018-Apr-22 21:01N 54°46' E 015°06'713.0
2018-Apr-22 20:30N 54°51' E 015°14'713.0
2018-Apr-22 19:58N 54°56' E 015°22'612.9
2018-Apr-22 19:30N 55°00' E 015°29'612.8
2018-Apr-22 19:01N 55°06' E 015°35'712.8
2018-Apr-22 18:27N 55°12' E 015°42'612.8
2018-Apr-22 18:00N 55°17' E 015°47'612.8
2018-Apr-22 17:30N 55°22' E 015°52'612.9
2018-Apr-22 17:00N 55°28' E 015°58'713.1
2018-Apr-22 16:30N 55°33' E 016°04'713.2
2018-Apr-22 16:01N 55°39' E 016°09'713.2
2018-Apr-22 15:31N 55°45' E 016°15'713.0
2018-Apr-22 15:01N 55°51' E 016°21'713.2
2018-Apr-22 14:31N 55°56' E 016°27'713.2
2018-Apr-22 14:01N 56°02' E 016°32'713.1
2018-Apr-22 13:31N 56°07' E 016°40'612.7
2018-Apr-22 13:01N 56°12' E 016°46'713.3
2018-Apr-22 12:31N 56°19' E 016°49'713.3
2018-Apr-22 12:00N 56°25' E 016°53'813.3
2018-Apr-22 11:22N 56°33' E 016°57'12513.3
2018-Apr-22 02:00N 58°35' E 017°51'713.4
2018-Apr-22 01:27N 58°42' E 017°53'510.1
2018-Apr-22 01:00N 58°46' E 017°56'713.3
2018-Apr-22 00:31N 58°52' E 018°01'3 5.4
2018-Apr-21 23:57N 58°55' E 017°58'0 0.0
2018-Apr-21 23:30N 58°55' E 017°58'0 0.0
2018-Apr-21 23:00N 58°55' E 017°58'0 0.0
2018-Apr-21 22:30N 58°55' E 017°58'0 0.0
2018-Apr-21 22:00N 58°55' E 017°58'0 0.0
2018-Apr-21 21:30N 58°55' E 017°58'0 0.0
2018-Apr-21 21:00N 58°55' E 017°58'0 0.0
2018-Apr-21 20:30N 58°55' E 017°58'0 0.0
2018-Apr-21 20:00N 58°55' E 017°58'0 0.0
2018-Apr-21 19:30N 58°55' E 017°58'0 0.0
2018-Apr-21 19:00N 58°55' E 017°58'0 0.0
2018-Apr-21 18:30N 58°55' E 017°58'0 0.0
2018-Apr-21 18:00N 58°55' E 017°58'0 0.0
2018-Apr-21 17:30N 58°55' E 017°58'0 0.0
2018-Apr-21 17:00N 58°55' E 017°58'0 0.0
2018-Apr-21 16:30N 58°55' E 017°58'0 0.0
2018-Apr-21 16:00N 58°55' E 017°58'0 0.0
2018-Apr-21 15:30N 58°55' E 017°58'0 0.0
2018-Apr-21 15:00N 58°55' E 017°58'0 0.0
2018-Apr-21 14:30N 58°55' E 017°58'0 0.0
2018-Apr-21 14:00N 58°55' E 017°58'0 0.0
2018-Apr-21 13:30N 58°55' E 017°58'0 0.0
2018-Apr-21 13:00N 58°55' E 017°58'0 0.0
2018-Apr-21 12:27N 58°55' E 017°58'0 0.0
2018-Apr-21 12:00N 58°55' E 017°58'0 0.0
2018-Apr-21 11:30N 58°55' E 017°58'0 0.0
2018-Apr-21 11:00N 58°55' E 017°58'0 0.0
2018-Apr-21 10:30N 58°55' E 017°58'0 0.0
2018-Apr-21 10:00N 58°55' E 017°58'0 0.0
2018-Apr-21 09:30N 58°55' E 017°58'0 0.0
2018-Apr-21 09:00N 58°55' E 017°58'0 0.0
2018-Apr-21 08:30N 58°55' E 017°58'0 0.0
2018-Apr-21 08:00N 58°55' E 017°58'0 0.0
2018-Apr-21 07:30N 58°55' E 017°58'0 0.0
2018-Apr-21 07:00N 58°55' E 017°58'0 0.0
2018-Apr-21 06:30N 58°55' E 017°58'0 0.0
2018-Apr-21 06:00N 58°55' E 017°58'0 0.0
2018-Apr-21 05:27N 58°55' E 017°58'0 0.0
2018-Apr-21 05:00N 58°55' E 017°58'0 0.0
2018-Apr-21 04:30N 58°55' E 017°58'1 1.1
2018-Apr-21 03:58N 58°55' E 017°59'0 0.2
2018-Apr-21 03:28N 58°55' E 017°59'0 0.1
2018-Apr-21 02:58N 58°55' E 017°59'0 0.1
2018-Apr-21 02:25N 58°55' E 017°59'0 0.0
2018-Apr-21 01:58N 58°55' E 017°59'0 0.0
2018-Apr-21 01:28N 58°55' E 017°59'0 0.0
2018-Apr-21 00:58N 58°55' E 017°59'0 0.0
2018-Apr-21 00:28N 58°55' E 017°59'0 0.0
2018-Apr-20 23:58N 58°55' E 017°59'0 0.0
2018-Apr-20 23:28N 58°55' E 017°59'0 0.0
2018-Apr-20 22:58N 58°55' E 017°59'0 0.0
2018-Apr-20 22:28N 58°55' E 017°59'0 0.0
2018-Apr-20 21:55N 58°55' E 017°59'0 0.0
2018-Apr-20 21:28N 58°55' E 017°59'0 0.0
2018-Apr-20 20:58N 58°55' E 017°59'0 0.0
2018-Apr-20 20:28N 58°55' E 017°59'0 0.0
2018-Apr-20 19:58N 58°55' E 017°59'0 0.0
2018-Apr-20 19:31N 58°55' E 017°59'0 0.1
2018-Apr-20 19:01N 58°55' E 017°59'0 0.0
2018-Apr-20 18:31N 58°55' E 017°59'0 0.0
2018-Apr-20 18:00N 58°55' E 017°59'0 0.0
2018-Apr-20 17:30N 58°55' E 017°59'0 0.0
2018-Apr-20 17:00N 58°55' E 017°59'0 0.0
2018-Apr-20 16:30N 58°55' E 017°59'0 0.0
2018-Apr-20 16:00N 58°55' E 017°59'0 0.0
2018-Apr-20 15:30N 58°55' E 017°59'0 0.0
2018-Apr-20 15:00N 58°55' E 017°59'0 0.0
2018-Apr-20 14:30N 58°55' E 017°59'0 0.0
2018-Apr-20 14:00N 58°55' E 017°59'0 0.0
2018-Apr-20 13:30N 58°55' E 017°59'0 0.0
2018-Apr-20 13:00N 58°55' E 017°59'0 0.0
2018-Apr-20 12:30N 58°55' E 017°59'0 0.0
2018-Apr-20 12:00N 58°55' E 017°59'0 0.1
2018-Apr-20 11:30N 58°55' E 017°59'0 0.1
2018-Apr-20 11:00N 58°55' E 017°59'0 0.1
2018-Apr-20 10:27N 58°55' E 017°59'0 0.0
2018-Apr-20 10:00N 58°55' E 017°59'0 0.0
2018-Apr-20 09:30N 58°55' E 017°59'0 0.1
2018-Apr-20 09:00N 58°55' E 017°59'0 0.0
2018-Apr-20 08:30N 58°55' E 017°59'0 0.0
2018-Apr-20 07:57N 58°55' E 017°59'0 0.0
2018-Apr-20 07:30N 58°55' E 017°59'0 0.0
2018-Apr-20 07:00N 58°55' E 017°59'0 0.0
2018-Apr-20 06:30N 58°55' E 017°59'0 0.0
2018-Apr-20 05:57N 58°55' E 017°59'0 0.0
2018-Apr-20 05:30N 58°55' E 017°59'0 0.1
2018-Apr-20 05:00N 58°55' E 017°59'0 0.3
2018-Apr-20 04:30N 58°55' E 017°59'1 1.1
2018-Apr-20 04:00N 58°55' E 017°58'0 0.0
2018-Apr-20 03:29N 58°55' E 017°58'0 0.0
2018-Apr-20 02:59N 58°55' E 017°58'0 0.0
2018-Apr-20 02:29N 58°55' E 017°58'0 0.0
2018-Apr-20 01:59N 58°55' E 017°58'0 0.0
2018-Apr-20 01:29N 58°55' E 017°58'0 0.0
2018-Apr-20 00:59N 58°55' E 017°58'0 0.0
2018-Apr-20 00:29N 58°55' E 017°58'0 0.0
2018-Apr-19 23:59N 58°55' E 017°58'0 0.0
2018-Apr-19 23:29N 58°55' E 017°58'0 0.0
2018-Apr-19 22:56N 58°55' E 017°58'0 0.0
2018-Apr-19 22:29N 58°55' E 017°58'0 0.0
2018-Apr-19 21:59N 58°55' E 017°58'0 0.0
2018-Apr-19 21:26N 58°55' E 017°58'0 0.0
2018-Apr-19 20:56N 58°55' E 017°58'0 0.0
2018-Apr-19 20:29N 58°55' E 017°58'0 0.0
2018-Apr-19 19:59N 58°55' E 017°58'0 0.0
2018-Apr-19 19:29N 58°55' E 017°58'0 0.0
2018-Apr-19 18:59N 58°55' E 017°58'0 0.0
2018-Apr-19 18:29N 58°55' E 017°58'0 0.0
2018-Apr-19 17:59N 58°55' E 017°58'0 0.0
2018-Apr-19 17:29N 58°55' E 017°58'0 0.0
2018-Apr-19 16:59N 58°55' E 017°58'0 0.0
2018-Apr-19 16:29N 58°55' E 017°58'0 0.0
2018-Apr-19 15:59N 58°55' E 017°58'0 0.0
2018-Apr-19 15:26N 58°55' E 017°58'0 0.0
2018-Apr-19 14:59N 58°55' E 017°58'0 0.0
2018-Apr-19 14:29N 58°55' E 017°58'0 0.0
2018-Apr-19 13:56N 58°55' E 017°58'0 0.0
2018-Apr-19 13:29N 58°55' E 017°58'0 0.0
2018-Apr-19 12:59N 58°55' E 017°58'0 0.0
2018-Apr-19 12:29N 58°55' E 017°58'0 0.2
2018-Apr-19 11:59N 58°55' E 017°58'0 0.0
2018-Apr-19 11:29N 58°55' E 017°58'0 0.0
2018-Apr-19 10:59N 58°55' E 017°58'0 0.0
2018-Apr-19 10:29N 58°55' E 017°58'0 0.0
2018-Apr-19 09:59N 58°55' E 017°58'0 0.0
2018-Apr-19 09:29N 58°55' E 017°58'0 0.0
2018-Apr-19 08:56N 58°55' E 017°58'0 0.0
2018-Apr-19 08:29N 58°55' E 017°58'0 0.0
2018-Apr-19 07:59N 58°55' E 017°58'0 0.0
2018-Apr-19 07:28N 58°55' E 017°58'1 1.3
2018-Apr-19 07:00N 58°55' E 017°60'510.8
2018-Apr-19 06:31N 58°50' E 017°59'711.0
2018-Apr-19 05:51N 58°43' E 017°52'2 5.0
2018-Apr-19 05:30N 58°42' E 017°53'712.5
2018-Apr-19 04:57N 58°35' E 017°51'15512.3
2018-Apr-18 16:20N 56°04' E 016°45'713.8
2018-Apr-18 15:50N 55°60' E 016°34'414.0
2018-Apr-18 15:30N 55°58' E 016°27'713.9
2018-Apr-18 15:00N 55°54' E 016°16'713.7
2018-Apr-18 14:30N 55°51' E 016°06'713.8
2018-Apr-18 14:00N 55°47' E 015°55'713.9
2018-Apr-18 13:30N 55°44' E 015°45'713.9
2018-Apr-18 13:00N 55°41' E 015°33'713.9
2018-Apr-18 12:30N 55°38' E 015°23'713.9
2018-Apr-18 12:00N 55°34' E 015°12'713.9
2018-Apr-18 11:29N 55°31' E 015°01'713.8
2018-Apr-18 11:01N 55°27' E 014°51'713.7
2018-Apr-18 10:30N 55°24' E 014°40'713.6
2018-Apr-18 10:00N 55°19' E 014°32'714.2
2018-Apr-18 09:30N 55°14' E 014°24'813.2
2018-Apr-18 08:56N 55°10' E 014°12'613.8
2018-Apr-18 08:30N 55°10' E 014°02'813.5
2018-Apr-18 07:54N 55°10' E 013°48'2413.4
2018-Apr-18 06:04N 55°12' E 013°05'213.4
2018-Apr-18 05:55N 55°13' E 013°02'813.3
2018-Apr-18 05:18N 55°16' E 012°48'413.1
2018-Apr-18 05:00N 55°17' E 012°42'510.1
2018-Apr-18 04:30N 55°22' E 012°39'612.6
2018-Apr-18 04:00N 55°28' E 012°41'611.2
2018-Apr-18 03:30N 55°33' E 012°42'611.6
2018-Apr-18 03:00N 55°39' E 012°41'612.9
2018-Apr-18 02:30N 55°46' E 012°41'612.9
2018-Apr-18 02:00N 55°52' E 012°40'713.4
2018-Apr-18 01:30N 55°59' E 012°38'612.5
2018-Apr-18 01:00N 56°05' E 012°35'813.8
2018-Apr-18 00:27N 56°10' E 012°25'1613.2
2018-Apr-17 23:12N 56°25' E 012°15'413.4
2018-Apr-17 22:56N 56°29' E 012°14'1213.9
2018-Apr-17 22:06N 56°40' E 012°08'214.1
2018-Apr-17 21:57N 56°42' E 012°07'614.0
2018-Apr-17 21:30N 56°48' E 012°05'713.5
2018-Apr-17 21:00N 56°55' E 012°01'713.4
2018-Apr-17 20:30N 57°01' E 011°58'713.6
2018-Apr-17 20:00N 57°08' E 011°55'713.9
2018-Apr-17 19:30N 57°14' E 011°52'713.9
2018-Apr-17 19:00N 57°21' E 011°47'713.5
2018-Apr-17 18:30N 57°27' E 011°42'713.4
2018-Apr-17 18:00N 57°33' E 011°37'5 9.4
2018-Apr-17 17:30N 57°38' E 011°41'3 6.3
2018-Apr-17 17:00N 57°39' E 011°45'3 6.5
2018-Apr-17 16:30N 57°41' E 011°51'1 2.9
2018-Apr-17 16:00N 57°41' E 011°53'0 0.0
2018-Apr-17 15:30N 57°41' E 011°53'0 0.0
2018-Apr-17 15:00N 57°41' E 011°53'0 0.0
2018-Apr-17 14:30N 57°41' E 011°53'0 0.0
2018-Apr-17 14:00N 57°41' E 011°53'0 0.0
2018-Apr-17 13:30N 57°41' E 011°53'0 0.0
2018-Apr-17 13:00N 57°41' E 011°53'0 0.0
2018-Apr-17 12:30N 57°41' E 011°53'0 0.0
2018-Apr-17 11:57N 57°41' E 011°53'0 0.0
2018-Apr-17 11:30N 57°41' E 011°53'0 0.0
2018-Apr-17 11:00N 57°41' E 011°53'0 0.0
2018-Apr-17 10:30N 57°41' E 011°53'0 0.0
2018-Apr-17 10:00N 57°41' E 011°53'0 0.0
2018-Apr-17 09:30N 57°41' E 011°53'0 0.0
2018-Apr-17 09:00N 57°41' E 011°53'0 0.0
2018-Apr-17 08:30N 57°41' E 011°53'0 0.0
2018-Apr-17 08:00N 57°41' E 011°53'0 0.0
2018-Apr-17 07:30N 57°41' E 011°53'0 0.0
2018-Apr-17 06:57N 57°41' E 011°53'0 0.0
2018-Apr-17 06:30N 57°41' E 011°53'0 0.0
2018-Apr-17 05:58N 57°41' E 011°53'0 0.0
2018-Apr-17 05:29N 57°41' E 011°53'0 0.0
2018-Apr-17 04:58N 57°41' E 011°53'0 0.0
2018-Apr-17 04:28N 57°41' E 011°53'0 0.0
2018-Apr-17 03:58N 57°41' E 011°53'0 0.0
2018-Apr-17 03:28N 57°41' E 011°53'0 0.0
2018-Apr-17 02:58N 57°41' E 011°53'0 0.0
2018-Apr-17 02:28N 57°41' E 011°53'0 0.0
2018-Apr-17 01:58N 57°41' E 011°53'0 0.0
2018-Apr-17 01:28N 57°41' E 011°53'0 0.0
2018-Apr-17 00:58N 57°41' E 011°53'0 0.0
2018-Apr-17 00:28N 57°41' E 011°53'0 0.0
2018-Apr-16 23:58N 57°41' E 011°53'0 0.0
2018-Apr-16 23:28N 57°41' E 011°53'0 0.0
2018-Apr-16 22:58N 57°41' E 011°53'0 0.0
2018-Apr-16 22:28N 57°41' E 011°53'0 0.0
2018-Apr-16 21:58N 57°41' E 011°53'0 0.0
2018-Apr-16 21:28N 57°41' E 011°53'0 0.0
2018-Apr-16 20:58N 57°41' E 011°53'0 0.0
2018-Apr-16 20:28N 57°41' E 011°53'0 0.0
2018-Apr-16 19:58N 57°41' E 011°53'0 0.0
2018-Apr-16 19:28N 57°41' E 011°53'0 0.0
2018-Apr-16 18:58N 57°41' E 011°53'0 0.0
2018-Apr-16 18:28N 57°41' E 011°53'0 0.0
2018-Apr-16 17:58N 57°41' E 011°53'0 0.0
2018-Apr-16 17:28N 57°41' E 011°53'0 0.0
2018-Apr-16 16:58N 57°41' E 011°53'0 0.0
2018-Apr-16 16:28N 57°41' E 011°53'0 0.0
2018-Apr-16 15:58N 57°41' E 011°53'0 0.0
2018-Apr-16 15:28N 57°41' E 011°53'0 0.0
2018-Apr-16 14:58N 57°41' E 011°53'0 0.0
2018-Apr-16 14:25N 57°41' E 011°53'0 0.0
2018-Apr-16 13:58N 57°41' E 011°53'0 0.0
2018-Apr-16 13:28N 57°41' E 011°53'0 0.0
2018-Apr-16 12:58N 57°41' E 011°53'0 0.0
2018-Apr-16 12:28N 57°41' E 011°53'0 0.0
2018-Apr-16 11:58N 57°41' E 011°53'0 0.0
2018-Apr-16 11:28N 57°41' E 011°53'0 0.0
2018-Apr-16 10:58N 57°41' E 011°53'0 0.0
2018-Apr-16 10:28N 57°41' E 011°53'0 0.8
2018-Apr-16 10:00N 57°41' E 011°53'0 0.4
2018-Apr-16 09:30N 57°41' E 011°53'0 0.0
2018-Apr-16 09:00N 57°41' E 011°53'0 0.0
2018-Apr-16 08:30N 57°41' E 011°53'0 0.0
2018-Apr-16 08:00N 57°41' E 011°53'0 0.0
2018-Apr-16 07:30N 57°41' E 011°53'0 0.0
2018-Apr-16 07:00N 57°41' E 011°53'0 0.0
2018-Apr-16 06:30N 57°41' E 011°53'0 0.0
2018-Apr-16 06:00N 57°41' E 011°53'0 0.0
2018-Apr-16 05:30N 57°41' E 011°53'0 0.0
2018-Apr-16 05:00N 57°41' E 011°53'0 0.0
2018-Apr-16 04:30N 57°41' E 011°53'0 0.0
2018-Apr-16 04:00N 57°41' E 011°53'0 0.0
2018-Apr-16 03:30N 57°41' E 011°53'0 0.0
2018-Apr-16 03:00N 57°41' E 011°53'0 0.0
2018-Apr-16 02:30N 57°41' E 011°53'0 0.0
2018-Apr-16 02:00N 57°41' E 011°53'  

Dump ship's entire track history